createdAt,value
2022-11-14T00:00:51.657Z,100223.47
2022-11-14T00:03:38.063Z,100221.34
2022-11-14T00:06:23.971Z,100220.56
2022-11-14T00:09:09.884Z,100220.47
2022-11-14T00:11:56.237Z,100226.25
2022-11-14T00:14:42.425Z,100218.31
2022-11-14T00:17:28.366Z,100211.44
2022-11-14T00:20:14.825Z,100214.69
2022-11-14T00:23:00.776Z,100217.31
2022-11-14T00:25:47.461Z,100213.81
2022-11-14T00:28:33.491Z,100225.75
2022-11-14T00:31:19.559Z,100220.75
2022-11-14T00:34:06.110Z,100212.66
2022-11-14T00:36:51.779Z,100227.13
2022-11-14T00:39:38.047Z,100223.03
2022-11-14T00:42:23.947Z,100232.13
2022-11-14T00:45:10.263Z,100232.88
2022-11-14T00:47:56.320Z,100233.94
2022-11-14T00:50:42.973Z,100238.84
2022-11-14T00:53:28.995Z,100241.47
2022-11-14T00:56:15.320Z,100246.38
2022-11-14T00:59:01.618Z,100246.16
2022-11-14T01:01:48.016Z,100253.25
2022-11-14T01:04:34.219Z,100270.09
2022-11-14T01:07:20.154Z,100262.91
2022-11-14T01:10:07.402Z,100267.91
2022-11-14T01:12:53.372Z,100277.50
2022-11-14T01:15:44.356Z,100259.28
2022-11-14T01:18:30.622Z,100263.59
2022-11-14T01:21:17.156Z,100264.38
2022-11-14T01:24:03.275Z,100264.38
2022-11-14T01:26:49.407Z,100268.25
2022-11-14T01:29:35.216Z,100253.34
2022-11-14T01:32:21.306Z,100276.94
2022-11-14T01:35:07.297Z,100290.00
2022-11-14T01:37:53.016Z,100283.38
2022-11-14T01:40:43.230Z,100282.59
2022-11-14T01:43:39.437Z,100278.69
2022-11-14T01:46:36.880Z,100299.03
2022-11-14T01:49:33.205Z,100292.44
2022-11-14T01:52:26.621Z,100304.66
2022-11-14T01:55:12.589Z,100307.09
2022-11-14T01:58:00.126Z,100308.56
2022-11-14T02:00:46.549Z,100307.69
2022-11-14T02:03:36.093Z,100334.53
2022-11-14T02:06:25.760Z,100329.69
2022-11-14T02:09:11.532Z,100323.06
2022-11-14T02:12:00.946Z,100340.88
2022-11-14T02:14:49.589Z,100346.28
2022-11-14T02:17:35.679Z,100346.06
2022-11-14T02:20:28.783Z,100347.69
2022-11-14T02:23:16.002Z,100362.06
2022-11-14T02:26:02.204Z,100347.94
2022-11-14T02:28:50.133Z,100343.84
2022-11-14T02:31:36.508Z,100347.81
2022-11-14T02:34:22.535Z,100348.47
2022-11-14T02:37:08.557Z,100354.53
2022-11-14T02:39:54.363Z,100350.47
2022-11-14T02:42:40.526Z,100346.59
2022-11-14T02:45:27.066Z,100351.31
2022-11-14T02:48:13.129Z,100367.13
2022-11-14T02:50:58.842Z,100368.91
2022-11-14T02:53:45.071Z,100365.22
2022-11-14T02:56:31.351Z,100361.59
2022-11-14T02:59:17.246Z,100367.34
2022-11-14T03:02:03.455Z,100374.28
2022-11-14T03:04:49.584Z,100384.44
2022-11-14T03:07:35.953Z,100381.34
2022-11-14T03:10:23.091Z,100387.63
2022-11-14T03:13:08.973Z,100393.69
2022-11-14T03:15:55.013Z,100381.44
2022-11-14T03:18:41.496Z,100383.31
2022-11-14T03:21:27.511Z,100369.44
2022-11-14T03:24:13.362Z,100389.13
2022-11-14T03:26:59.817Z,100386.22
2022-11-14T03:29:45.787Z,100384.00
2022-11-14T03:32:32.109Z,100384.88
2022-11-14T03:35:18.531Z,100390.53
2022-11-14T03:38:04.899Z,100390.63
2022-11-14T03:40:52.019Z,100388.50
2022-11-14T03:43:38.112Z,100408.41
2022-11-14T03:46:23.989Z,100405.97
2022-11-14T03:49:09.762Z,100409.97
2022-11-14T03:51:56.018Z,100406.31
2022-11-14T03:54:42.279Z,100409.50
2022-11-14T03:57:28.392Z,100418.88
2022-11-14T04:00:16.524Z,100417.47
2022-11-14T04:03:02.827Z,100417.34
2022-11-14T04:05:49.650Z,100424.97
2022-11-14T04:08:35.668Z,100425.41
2022-11-14T04:11:21.436Z,100425.19
2022-11-14T04:14:07.727Z,100420.97
2022-11-14T04:16:53.669Z,100423.38
2022-11-14T04:19:39.976Z,100414.66
2022-11-14T04:22:26.384Z,100427.00
2022-11-14T04:25:12.087Z,100424.13
2022-11-14T04:27:58.099Z,100428.66
2022-11-14T04:30:45.300Z,100448.66
2022-11-14T04:33:31.478Z,100440.34
2022-11-14T04:36:17.500Z,100437.34
2022-11-14T04:39:03.458Z,100441.44
2022-11-14T04:41:49.460Z,100456.28
2022-11-14T04:44:35.398Z,100452.53
2022-11-14T04:47:21.116Z,100459.66
2022-11-14T04:50:07.926Z,100465.63
2022-11-14T04:52:53.985Z,100465.53
2022-11-14T04:55:39.903Z,100459.56
2022-11-14T04:58:26.837Z,100467.06
2022-11-14T05:01:14.718Z,100468.34
2022-11-14T05:04:00.781Z,100472.53
2022-11-14T05:06:46.933Z,100467.09
2022-11-14T05:09:33.046Z,100475.25
2022-11-14T05:12:19.377Z,100471.69
2022-11-14T05:15:06.631Z,100488.44
2022-11-14T05:17:53.780Z,100487.22
2022-11-14T05:20:40.118Z,100502.28
2022-11-14T05:23:27.031Z,100506.00
2022-11-14T05:26:16.338Z,100509.44
2022-11-14T05:29:02.610Z,100512.09
2022-11-14T05:31:48.262Z,100522.72
2022-11-14T05:34:34.434Z,100526.09
2022-11-14T05:37:20.755Z,100527.72
2022-11-14T05:40:07.235Z,100531.16
2022-11-14T05:42:55.879Z,100535.38
2022-11-14T05:45:41.773Z,100542.16
2022-11-14T05:48:28.557Z,100544.94
2022-11-14T05:51:15.124Z,100550.72
2022-11-14T05:54:01.102Z,100555.75
2022-11-14T05:56:47.115Z,100563.28
2022-11-14T05:59:33.553Z,100557.97
2022-11-14T06:02:19.837Z,100560.75
2022-11-14T06:05:06.904Z,100560.09
2022-11-14T06:07:57.608Z,100564.66
2022-11-14T06:10:43.763Z,100569.44
2022-11-14T06:13:30.075Z,100571.84
2022-11-14T06:16:18.440Z,100590.91
2022-11-14T06:19:05.496Z,100591.00
2022-11-14T06:21:51.450Z,100592.00
2022-11-14T06:24:37.793Z,100595.56
2022-11-14T06:27:24.031Z,100597.09
2022-11-14T06:30:10.679Z,100599.84
2022-11-14T06:32:59.258Z,100605.03
2022-11-14T06:35:45.399Z,100596.41
2022-11-14T06:38:33.067Z,100608.88
2022-11-14T06:41:21.721Z,100610.78
2022-11-14T06:44:08.868Z,100604.34
2022-11-14T06:46:54.858Z,100608.34
2022-11-14T06:49:41.183Z,100620.28
2022-11-14T06:52:27.475Z,100606.25
2022-11-14T06:55:13.458Z,100629.09
2022-11-14T06:57:59.060Z,100616.78
2022-11-14T07:00:45.289Z,100625.88
2022-11-14T07:03:32.249Z,100625.41
2022-11-14T07:06:21.692Z,100614.34
2022-11-14T07:09:07.852Z,100630.16
2022-11-14T07:11:53.926Z,100627.31
2022-11-14T07:14:40.233Z,100631.13
2022-11-14T07:17:30.997Z,100639.56
2022-11-14T07:20:18.668Z,100636.63
2022-11-14T07:23:04.779Z,100647.53
2022-11-14T07:25:50.766Z,100641.16
2022-11-14T07:28:38.226Z,100644.22
2022-11-14T07:31:24.550Z,100654.69
2022-11-14T07:34:11.368Z,100665.75
2022-11-14T07:36:57.311Z,100663.78
2022-11-14T07:39:43.584Z,100672.50
2022-11-14T07:42:31.554Z,100672.63
2022-11-14T07:45:17.906Z,100651.53
2022-11-14T07:48:04.177Z,100654.25
2022-11-14T07:50:50.539Z,100662.25
2022-11-14T07:53:36.418Z,100658.13
2022-11-14T07:56:22.436Z,100660.91
2022-11-14T07:59:08.490Z,100662.38
2022-11-14T08:01:54.451Z,100673.84
2022-11-14T08:04:42.016Z,100670.00
2022-11-14T08:07:28.117Z,100674.25
2022-11-14T08:10:14.368Z,100660.56
2022-11-14T08:13:30.539Z,100660.81
2022-11-14T08:16:14.250Z,100668.56
2022-11-14T08:19:00.760Z,100672.69
2022-11-14T08:21:46.774Z,100660.91
2022-11-14T08:24:32.981Z,100667.56
2022-11-14T08:27:19.179Z,100662.47
2022-11-14T08:30:05.687Z,100663.47
2022-11-14T08:32:51.794Z,100664.59
2022-11-14T08:35:37.893Z,100670.28
2022-11-14T08:38:24.037Z,100663.31
2022-11-14T08:41:10.409Z,100668.44
2022-11-14T08:43:56.773Z,100654.44
2022-11-14T08:46:42.929Z,100654.69
2022-11-14T08:49:28.904Z,100658.31
2022-11-14T08:52:16.796Z,100650.28
2022-11-14T08:55:03.487Z,100652.16
2022-11-14T08:57:50.072Z,100650.69
2022-11-14T09:00:36.428Z,100655.50
2022-11-14T09:03:22.581Z,100653.34
2022-11-14T09:06:08.767Z,100657.38
2022-11-14T09:08:55.284Z,100651.59
2022-11-14T09:11:41.357Z,100650.19
2022-11-14T09:14:27.312Z,100658.22
2022-11-14T09:17:13.279Z,100655.78
2022-11-14T09:19:58.887Z,100661.06
2022-11-14T09:22:45.368Z,100653.56
2022-11-14T09:25:31.628Z,100653.59
2022-11-14T09:28:17.875Z,100649.22
2022-11-14T09:31:10.093Z,100649.41
2022-11-14T09:33:56.368Z,100651.28
2022-11-14T09:36:42.717Z,100658.31
2022-11-14T09:39:29.049Z,100658.44
2022-11-14T09:42:24.323Z,100652.44
2022-11-14T09:45:16.345Z,100656.81
2022-11-14T09:48:10.694Z,100649.88
2022-11-14T09:51:06.975Z,100649.00
2022-11-14T09:54:20.616Z,100649.91
2022-11-14T09:57:15.452Z,100656.00
2022-11-14T10:00:01.476Z,100647.28
2022-11-14T10:02:48.408Z,100647.19
2022-11-14T10:05:45.852Z,100644.53
2022-11-14T10:09:02.661Z,100638.34
2022-11-14T10:12:16.258Z,100645.28
2022-11-14T10:15:14.182Z,100634.09
2022-11-14T10:18:33.691Z,100648.00
2022-11-14T10:21:31.781Z,100647.16
2022-11-14T10:24:49.041Z,100651.56
2022-11-14T10:28:08.988Z,100639.38
2022-11-14T10:31:07.545Z,100647.03
2022-11-14T10:34:09.249Z,100640.25
2022-11-14T10:37:14.608Z,100641.97
2022-11-14T10:40:25.905Z,100638.81
2022-11-14T10:43:22.381Z,100654.06
2022-11-14T10:46:24.651Z,100652.22
2022-11-14T10:49:22.428Z,100649.44
2022-11-14T10:52:16.707Z,100655.47
2022-11-14T10:55:14.795Z,100648.88
2022-11-14T10:58:01.071Z,100657.06
2022-11-14T11:00:47.114Z,100662.28
2022-11-14T11:03:44.142Z,100662.84
2022-11-14T11:06:30.366Z,100668.06
2022-11-14T11:09:45.530Z,100665.59
2022-11-14T11:12:37.692Z,100672.22
2022-11-14T11:15:26.580Z,100672.41
2022-11-14T11:18:36.308Z,100667.28
2022-11-14T11:21:23.551Z,100660.06
2022-11-14T11:24:09.752Z,100676.66
2022-11-14T11:27:35.625Z,100667.19
2022-11-14T11:30:26.167Z,100672.03
2022-11-14T11:33:21.340Z,100676.16
2022-11-14T11:36:20.423Z,100669.53
2022-11-14T11:39:18.001Z,100671.69
2022-11-14T11:42:10.177Z,100678.13
2022-11-14T11:45:00.505Z,100671.47
2022-11-14T11:47:56.224Z,100674.50
2022-11-14T11:50:43.228Z,100675.34
2022-11-14T11:53:34.377Z,100678.16
2022-11-14T11:56:26.551Z,100676.03
2022-11-14T11:59:33.679Z,100676.34
2022-11-14T12:02:27.789Z,100670.81
2022-11-14T12:05:22.803Z,100670.88
2022-11-14T12:08:53.324Z,100675.44
2022-11-14T12:11:45.861Z,100667.56
2022-11-14T12:15:00.682Z,100676.19
2022-11-14T12:18:07.978Z,100684.44
2022-11-14T12:21:20.837Z,100677.69
2022-11-14T12:24:37.578Z,100680.78
2022-11-14T12:27:43.226Z,100673.38
2022-11-14T12:30:31.767Z,100685.72
2022-11-14T12:33:47.533Z,100680.31
2022-11-14T12:36:35.241Z,100676.16
2022-11-14T12:39:31.159Z,100673.78
2022-11-14T12:42:21.686Z,100685.63
2022-11-14T12:45:41.291Z,100677.88
2022-11-14T12:48:27.060Z,100683.94
2022-11-14T12:51:27.841Z,100683.63
2022-11-14T12:54:44.847Z,100678.41
2022-11-14T12:57:49.453Z,100686.56
2022-11-14T13:01:26.955Z,100682.91
2022-11-14T13:04:15.595Z,100685.72
2022-11-14T13:07:20.096Z,100691.47
2022-11-14T13:10:29.890Z,100689.31
2022-11-14T13:13:35.570Z,100691.66
2022-11-14T13:16:43.719Z,100684.31
2022-11-14T13:19:48.872Z,100671.13
2022-11-14T13:22:45.382Z,100693.09
2022-11-14T13:25:31.552Z,100682.09
2022-11-14T13:28:36.478Z,100685.88
2022-11-14T13:31:25.653Z,100689.75
2022-11-14T13:34:51.312Z,100680.97
2022-11-14T13:37:40.382Z,100687.47
2022-11-14T13:40:28.959Z,100689.78
2022-11-14T13:43:33.528Z,100679.41
2022-11-14T13:46:38.747Z,100692.09
2022-11-14T13:49:54.145Z,100689.06
2022-11-14T13:52:43.587Z,100676.13
2022-11-14T13:55:29.642Z,100683.25
2022-11-14T13:58:30.502Z,100684.13
2022-11-14T14:01:29.072Z,100689.97
2022-11-14T14:04:34.308Z,100687.22
2022-11-14T14:07:41.318Z,100689.97
2022-11-14T14:10:48.559Z,100677.22
2022-11-14T14:13:55.745Z,100692.16
2022-11-14T14:16:50.853Z,100685.31
2022-11-14T14:19:51.744Z,100691.00
2022-11-14T14:22:48.370Z,100687.47
2022-11-14T14:25:55.435Z,100695.72
2022-11-14T14:29:18.307Z,100695.22
2022-11-14T14:32:22.015Z,100686.31
2022-11-14T14:35:24.713Z,100683.03
2022-11-14T14:38:23.097Z,100689.63
2022-11-14T14:41:12.229Z,100687.63
2022-11-14T14:44:00.230Z,100688.88
2022-11-14T14:46:46.708Z,100682.56
2022-11-14T14:49:37.759Z,100688.38
2022-11-14T14:52:41.912Z,100681.03
2022-11-14T14:55:32.762Z,100688.13
2022-11-14T14:58:26.414Z,100687.22
2022-11-14T15:01:16.780Z,100687.06
2022-11-14T15:04:08.447Z,100686.13
2022-11-14T15:06:58.538Z,100674.81
2022-11-14T15:09:56.651Z,100673.28
2022-11-14T15:12:43.552Z,100677.22
2022-11-14T15:15:30.632Z,100681.78
2022-11-14T15:18:37.346Z,100671.94
2022-11-14T15:21:30.800Z,100683.50
2022-11-14T15:24:19.909Z,100674.88
2022-11-14T15:27:13.101Z,100677.03
2022-11-14T15:30:03.312Z,100667.09
2022-11-14T15:32:52.049Z,100678.25
2022-11-14T15:35:39.642Z,100665.69
2022-11-14T15:41:33.591Z,100662.09
2022-11-14T15:44:34.118Z,100660.34
2022-11-14T15:47:36.869Z,100656.88
2022-11-14T15:50:35.353Z,100659.13
2022-11-14T15:53:25.359Z,100675.63
2022-11-14T15:56:13.122Z,100664.94
2022-11-14T15:58:59.343Z,100663.69
2022-11-14T16:01:48.945Z,100664.09
2022-11-14T16:04:36.749Z,100673.03
2022-11-14T16:07:23.243Z,100657.78
2022-11-14T16:10:21.168Z,100671.59
2022-11-14T16:13:07.563Z,100674.16
2022-11-14T16:15:53.521Z,100666.16
2022-11-14T16:18:39.814Z,100673.25
2022-11-14T16:21:26.455Z,100670.59
2022-11-14T16:24:16.951Z,100682.53
2022-11-14T16:27:04.192Z,100662.72
2022-11-14T16:29:50.300Z,100659.97
2022-11-14T16:32:36.266Z,100659.97
2022-11-14T16:35:25.663Z,100655.09
2022-11-14T16:38:14.866Z,100658.91
2022-11-14T16:41:01.011Z,100661.72
2022-11-14T16:43:47.330Z,100663.50
2022-11-14T16:46:33.229Z,100654.88
2022-11-14T16:49:20.093Z,100654.75
2022-11-14T16:52:08.762Z,100649.25
2022-11-14T16:54:54.874Z,100651.78
2022-11-14T16:57:41.139Z,100652.13
2022-11-14T17:00:27.776Z,100652.84
2022-11-14T17:03:14.530Z,100652.75
2022-11-14T17:06:00.885Z,100648.13
2022-11-14T17:08:46.943Z,100645.72
2022-11-14T17:11:33.468Z,100649.25
2022-11-14T17:14:19.515Z,100638.09
2022-11-14T17:17:05.503Z,100630.59
2022-11-14T17:19:51.306Z,100620.00
2022-11-14T17:22:37.445Z,100624.75
2022-11-14T17:25:23.953Z,100625.88
2022-11-14T17:28:09.824Z,100628.63
2022-11-14T17:30:56.063Z,100628.03
2022-11-14T17:33:42.156Z,100627.59
2022-11-14T17:36:29.956Z,100622.38
2022-11-14T17:39:15.906Z,100625.50
2022-11-14T17:42:01.939Z,100632.91
2022-11-14T17:44:48.204Z,100622.38
2022-11-14T17:47:34.518Z,100620.59
2022-11-14T17:50:20.931Z,100618.94
2022-11-14T17:53:07.310Z,100614.88
2022-11-14T17:55:57.487Z,100624.88
2022-11-14T17:58:44.174Z,100624.00
2022-11-14T18:01:31.429Z,100623.84
2022-11-14T18:04:17.725Z,100615.41
2022-11-14T18:07:03.899Z,100625.19
2022-11-14T18:09:50.035Z,100622.81
2022-11-14T18:12:36.337Z,100615.28
2022-11-14T18:15:27.707Z,100623.69
2022-11-14T18:18:14.112Z,100610.97
2022-11-14T18:21:17.087Z,100626.75
2022-11-14T18:24:03.398Z,100610.91
2022-11-14T18:26:49.615Z,100621.94
2022-11-14T18:29:36.004Z,100623.72
2022-11-14T18:32:22.110Z,100618.13
2022-11-14T18:35:09.457Z,100629.28
2022-11-14T18:37:57.925Z,100618.50
2022-11-14T18:40:44.575Z,100614.03
2022-11-14T18:43:32.773Z,100622.50
2022-11-14T18:46:24.204Z,100614.41
2022-11-14T18:49:11.318Z,100625.06
2022-11-14T18:51:57.381Z,100615.28
2022-11-14T18:54:43.261Z,100609.31
2022-11-14T18:57:31.294Z,100611.22
2022-11-14T19:00:17.867Z,100610.72
2022-11-14T19:03:06.374Z,100601.34
2022-11-14T19:05:52.507Z,100612.50
2022-11-14T19:08:39.706Z,100607.19
2022-11-14T19:11:44.392Z,100614.16
2022-11-14T19:14:30.044Z,100606.41
2022-11-14T19:17:20.940Z,100603.09
2022-11-14T19:20:12.968Z,100599.56
2022-11-14T19:23:00.434Z,100607.06
2022-11-14T19:25:46.791Z,100600.22
2022-11-14T19:28:32.307Z,100594.25
2022-11-14T19:31:19.603Z,100600.13
2022-11-14T19:34:05.853Z,100591.94
2022-11-14T19:37:00.817Z,100596.03
2022-11-14T19:39:47.672Z,100582.34
2022-11-14T19:42:33.650Z,100586.16
2022-11-14T19:45:19.900Z,100583.91
2022-11-14T19:48:06.296Z,100583.69
2022-11-14T19:51:10.082Z,100582.91
2022-11-14T19:53:57.686Z,100586.06
2022-11-14T19:56:43.787Z,100587.63
2022-11-14T19:59:29.712Z,100583.53
2022-11-14T20:02:15.821Z,100584.69
2022-11-14T20:05:01.548Z,100582.94
2022-11-14T20:07:47.527Z,100573.22
2022-11-14T20:10:47.663Z,100574.59
2022-11-14T20:13:37.130Z,100590.22
2022-11-14T20:16:26.687Z,100581.94
2022-11-14T20:19:13.828Z,100589.78
2022-11-14T20:22:01.061Z,100582.53
2022-11-14T20:24:46.833Z,100583.81
2022-11-14T20:27:33.167Z,100578.63
2022-11-14T20:30:19.008Z,100584.97
2022-11-14T20:33:05.023Z,100583.97
2022-11-14T20:35:51.131Z,100585.25
2022-11-14T20:38:37.143Z,100584.25
2022-11-14T20:41:26.142Z,100587.00
2022-11-14T20:44:11.896Z,100579.94
2022-11-14T20:46:57.632Z,100574.72
2022-11-14T20:49:44.384Z,100566.00
2022-11-14T20:52:48.251Z,100560.66
2022-11-14T20:55:34.535Z,100580.97
2022-11-14T20:58:21.190Z,100583.38
2022-11-14T21:01:07.950Z,100574.25
2022-11-14T21:03:54.236Z,100575.16
2022-11-14T21:06:40.250Z,100572.22
2022-11-14T21:09:26.489Z,100569.91
2022-11-14T21:12:12.711Z,100575.16
2022-11-14T21:14:58.989Z,100568.81
2022-11-14T21:17:45.282Z,100568.81
2022-11-14T21:20:31.426Z,100566.75
2022-11-14T21:23:17.762Z,100571.47
2022-11-14T21:26:15.383Z,100567.38
2022-11-14T21:29:05.308Z,100577.91
2022-11-14T21:31:51.252Z,100573.31
2022-11-14T21:34:37.410Z,100569.53
2022-11-14T21:37:23.154Z,100570.38
2022-11-14T21:40:10.006Z,100570.38
2022-11-14T21:42:55.808Z,100554.00
2022-11-14T21:45:41.660Z,100556.91
2022-11-14T21:48:31.787Z,100552.47
2022-11-14T21:51:24.702Z,100555.00
2022-11-14T21:54:10.429Z,100554.50
2022-11-14T21:56:58.943Z,100551.69
2022-11-14T21:59:45.020Z,100543.19
2022-11-14T22:02:50.966Z,100549.03
2022-11-14T22:05:37.097Z,100541.69
2022-11-14T22:08:23.654Z,100542.47
2022-11-14T22:11:09.732Z,100538.50
2022-11-14T22:13:55.599Z,100542.69
2022-11-14T22:16:44.323Z,100526.09
2022-11-14T22:19:30.723Z,100519.34
2022-11-14T22:22:16.893Z,100525.91
2022-11-14T22:25:02.961Z,100520.19
2022-11-14T22:27:48.912Z,100516.53
2022-11-14T22:30:34.975Z,100514.09
2022-11-14T22:33:21.279Z,100517.00
2022-11-14T22:36:12.808Z,100515.75
2022-11-14T22:38:58.839Z,100521.22
2022-11-14T22:41:47.076Z,100514.38
2022-11-14T22:44:33.073Z,100528.63
2022-11-14T22:47:18.840Z,100520.78
2022-11-14T22:50:05.604Z,100519.53
2022-11-14T22:52:51.679Z,100520.28
2022-11-14T22:55:37.364Z,100517.38
2022-11-14T22:58:24.006Z,100518.88
2022-11-14T23:01:25.196Z,100515.72
2022-11-14T23:04:11.332Z,100522.19
2022-11-14T23:06:57.536Z,100517.00
2022-11-14T23:09:43.822Z,100508.78
2022-11-14T23:12:31.666Z,100513.69
2022-11-14T23:15:17.873Z,100516.16
2022-11-14T23:18:04.986Z,100512.41
2022-11-14T23:20:51.051Z,100514.38
2022-11-14T23:23:37.299Z,100501.97
2022-11-14T23:26:23.892Z,100502.25
2022-11-14T23:29:14.141Z,100491.59
2022-11-14T23:32:00.351Z,100497.44
2022-11-14T23:34:45.971Z,100492.59
2022-11-14T23:37:31.751Z,100487.41
2022-11-14T23:40:17.620Z,100493.16
2022-11-14T23:43:03.973Z,100481.63
2022-11-14T23:45:50.127Z,100476.66
2022-11-14T23:48:35.851Z,100464.63
2022-11-14T23:51:21.860Z,100461.22
2022-11-14T23:54:08.042Z,100456.59
2022-11-14T23:56:54.259Z,100462.22
2022-11-14T23:59:40.344Z,100459.38
